Time;durP1;ratioP1;P1;durP2;ratioP2;P2;SDS_P1;SDS_P2;PMS_P1;PMS_P2;Temp;Humidity;BMP_temperature;BMP_pressure;BME280_temperature;BME280_humidity;BME280_pressure;Samples;Min_cycle;Max_cycle;Signal;HPM_P1;HPM_P2
2021/07/20 00:01:45;;;;;;;28.73;14.10;;;;;;;;;;5015590;28;20049;-68
2021/07/20 00:04:31;;;;;;;29.85;15.77;;;;;;;;;;5015719;28;20041;-68
2021/07/20 00:07:16;;;;;;;25.92;14.55;;;;;;;;;;5034522;28;20052;-68
2021/07/20 00:10:01;;;;;;;37.10;18.00;;;;;;;;;;5035239;28;20044;-68
2021/07/20 00:12:47;;;;;;;36.28;18.02;;;;;;;;;;5035226;28;20049;-68
2021/07/20 00:15:32;;;;;;;41.42;17.33;;;;;;;;;;5035275;28;20056;-68
2021/07/20 00:18:18;;;;;;;42.67;18.23;;;;;;;;;;5034407;28;20041;-68
2021/07/20 00:21:04;;;;;;;46.78;19.65;;;;;;;;;;5034488;28;20076;-68
2021/07/20 00:23:50;;;;;;;40.10;18.00;;;;;;;;;;5034936;28;20052;-68
2021/07/20 00:26:35;;;;;;;33.83;18.42;;;;;;;;;;5035217;28;20084;-68
2021/07/20 00:29:20;;;;;;;41.15;18.88;;;;;;;;;;5034743;28;20122;-68
2021/07/20 00:32:06;;;;;;;37.17;17.38;;;;;;;;;;5034980;28;20053;-68
2021/07/20 00:34:51;;;;;;;31.42;17.98;;;;;;;;;;5033837;28;20044;-68
2021/07/20 00:37:37;;;;;;;34.38;17.73;;;;;;;;;;5033896;28;20384;-68
2021/07/20 00:40:23;;;;;;;34.60;17.83;;;;;;;;;;5034214;28;20048;-67
2021/07/20 00:43:14;;;;;;;42.42;19.08;;;;;;;;;;5033649;28;20076;-67
2021/07/20 00:46:01;;;;;;;37.60;16.92;;;;;;;;;;5034642;28;20038;-67
2021/07/20 00:48:47;;;;;;;33.33;15.77;;;;;;;;;;5034566;28;20450;-67
2021/07/20 00:51:48;;;;;;;38.00;17.02;;;;;;;;;;5014580;28;20052;-68
2021/07/20 00:54:37;;;;;;;30.25;15.98;;;;;;;;;;5013885;28;20488;-68
2021/07/20 00:57:23;;;;;;;34.40;16.52;;;;;;;;;;5013636;28;20627;-68
2021/07/20 01:00:09;;;;;;;28.98;15.38;;;;;;;;;;5013236;28;20050;-66
2021/07/20 01:02:55;;;;;;;28.05;16.10;;;;;;;;;;5022206;28;20041;-68
2021/07/20 01:05:42;;;;;;;26.45;15.00;;;;;;;;;;5033372;28;20045;-67
2021/07/20 01:08:30;;;;;;;26.27;14.18;;;;;;;;;;5034357;28;20045;-67
2021/07/20 01:11:16;;;;;;;26.17;14.30;;;;;;;;;;5033670;28;20119;-67
2021/07/20 01:14:03;;;;;;;27.63;15.57;;;;;;;;;;5019595;28;20104;-67
2021/07/20 01:16:49;;;;;;;29.42;14.65;;;;;;;;;;5019276;28;20045;-67
2021/07/20 01:19:34;;;;;;;28.83;15.23;;;;;;;;;;5019098;28;20514;-68
2021/07/20 01:22:24;;;;;;;27.75;16.13;;;;;;;;;;5032299;28;20126;-67
2021/07/20 01:25:11;;;;;;;25.58;14.50;;;;;;;;;;5033046;28;20060;-67
2021/07/20 01:27:59;;;;;;;26.85;15.48;;;;;;;;;;5033858;28;20046;-68
2021/07/20 01:30:46;;;;;;;22.92;14.07;;;;;;;;;;5032761;28;20053;-67
2021/07/20 01:33:33;;;;;;;25.88;13.65;;;;;;;;;;5033043;28;20068;-68
2021/07/20 01:36:20;;;;;;;26.38;14.43;;;;;;;;;;5032713;28;20512;-67
2021/07/20 01:39:09;;;;;;;24.02;14.95;;;;;;;;;;5046499;28;20548;-67
2021/07/20 01:41:54;;;;;;;22.30;13.30;;;;;;;;;;5033245;28;20045;-68
2021/07/20 01:44:40;;;;;;;23.88;13.90;;;;;;;;;;5012884;28;20069;-67
2021/07/20 01:47:26;;;;;;;22.92;13.70;;;;;;;;;;5012759;28;20045;-68
2021/07/20 01:50:12;;;;;;;21.85;13.02;;;;;;;;;;5012617;28;20072;-68
2021/07/20 01:52:57;;;;;;;22.27;13.18;;;;;;;;;;5012960;28;20408;-67
2021/07/20 01:55:42;;;;;;;24.27;12.77;;;;;;;;;;5012638;28;20129;-67
2021/07/20 01:58:28;;;;;;;23.42;13.55;;;;;;;;;;5012638;28;20499;-68
2021/07/20 02:01:40;;;;;;;24.58;12.73;;;;;;;;;;5013643;28;20038;-68
2021/07/20 02:10:27;;;;;;;23.95;13.85;;;;;;;;;;5013350;28;20046;-68
2021/07/20 02:13:28;;;;;;;27.00;13.52;;;;;;;;;;5000027;28;20396;-67
2021/07/20 02:16:34;;;;;;;23.98;13.18;;;;;;;;;;5000923;28;20052;-67
2021/07/20 02:19:33;;;;;;;22.90;13.05;;;;;;;;;;5012048;28;20411;-68
2021/07/20 02:22:39;;;;;;;20.23;12.93;;;;;;;;;;4997444;28;20058;-67
2021/07/20 02:25:25;;;;;;;21.25;12.93;;;;;;;;;;5012222;28;20049;-67
2021/07/20 02:28:11;;;;;;;19.63;12.80;;;;;;;;;;5025888;28;20048;-68
2021/07/20 02:31:01;;;;;;;24.52;14.60;;;;;;;;;;5012249;28;20175;-68
2021/07/20 02:33:50;;;;;;;21.05;12.05;;;;;;;;;;5012213;28;20057;-68
2021/07/20 02:36:37;;;;;;;18.40;11.65;;;;;;;;;;5013016;28;20061;-67
2021/07/20 02:39:22;;;;;;;23.42;13.90;;;;;;;;;;5011740;28;20053;-68
2021/07/20 02:42:08;;;;;;;21.52;11.85;;;;;;;;;;4998349;28;20042;-67
2021/07/20 02:44:53;;;;;;;20.23;11.38;;;;;;;;;;5011866;28;20073;-68
2021/07/20 02:47:39;;;;;;;16.83;11.48;;;;;;;;;;5024139;28;20044;-67
2021/07/20 02:50:25;;;;;;;17.17;11.00;;;;;;;;;;5031213;28;20059;-68
2021/07/20 02:53:18;;;;;;;18.00;11.20;;;;;;;;;;4999754;28;20064;-67
2021/07/20 02:56:18;;;;;;;19.33;11.60;;;;;;;;;;5012660;28;20408;-67
2021/07/20 02:59:08;;;;;;;17.27;11.25;;;;;;;;;;5029835;28;20064;-67
2021/07/20 03:02:07;;;;;;;18.92;12.00;;;;;;;;;;5012043;28;20046;-67
2021/07/20 03:04:53;;;;;;;19.05;11.13;;;;;;;;;;4997499;28;20578;-68
2021/07/20 03:07:39;;;;;;;16.10;11.38;;;;;;;;;;5022036;28;20104;-67
2021/07/20 03:10:31;;;;;;;20.92;12.07;;;;;;;;;;5018143;28;20378;-67
2021/07/20 03:13:17;;;;;;;17.45;10.82;;;;;;;;;;5028880;28;20066;-67
2021/07/20 03:16:08;;;;;;;18.27;11.20;;;;;;;;;;5030444;28;20064;-67
2021/07/20 03:18:54;;;;;;;17.05;10.48;;;;;;;;;;4998869;28;20095;-67
2021/07/20 03:21:41;;;;;;;17.73;11.50;;;;;;;;;;5005100;28;20510;-67
2021/07/20 03:24:28;;;;;;;18.67;11.63;;;;;;;;;;5031987;28;20061;-68
2021/07/20 03:27:15;;;;;;;17.40;11.50;;;;;;;;;;5030133;28;20056;-67
2021/07/20 03:30:08;;;;;;;20.70;12.27;;;;;;;;;;5016542;28;20172;-67
2021/07/20 03:32:53;;;;;;;20.00;11.60;;;;;;;;;;5014728;28;20104;-67
2021/07/20 03:35:58;;;;;;;17.80;10.80;;;;;;;;;;5030870;28;20119;-67
2021/07/20 03:38:44;;;;;;;18.42;11.07;;;;;;;;;;5030827;28;20514;-67
2021/07/20 03:41:31;;;;;;;21.35;11.57;;;;;;;;;;5016772;28;20520;-67
2021/07/20 03:44:17;;;;;;;22.08;11.95;;;;;;;;;;5020480;28;20104;-67
2021/07/20 03:47:02;;;;;;;15.93;10.77;;;;;;;;;;5025236;28;20077;-67
2021/07/20 03:49:49;;;;;;;21.25;12.63;;;;;;;;;;5016928;28;20053;-67
2021/07/20 03:52:36;;;;;;;17.42;11.23;;;;;;;;;;5012103;28;20122;-67
2021/07/20 03:55:21;;;;;;;19.83;12.43;;;;;;;;;;5008242;28;20553;-68
2021/07/20 03:58:07;;;;;;;20.67;12.77;;;;;;;;;;5024294;28;20388;-68
2021/07/20 04:00:53;;;;;;;20.52;11.75;;;;;;;;;;5028761;28;20037;-68
2021/07/20 04:03:41;;;;;;;20.02;11.48;;;;;;;;;;5016540;28;20499;-67
2021/07/20 04:06:46;;;;;;;18.52;11.73;;;;;;;;;;5039800;28;20044;-68
2021/07/20 04:09:38;;;;;;;21.38;12.27;;;;;;;;;;5029648;28;20053;-68
2021/07/20 04:12:43;;;;;;;17.30;10.75;;;;;;;;;;5018004;28;20045;-68
2021/07/20 04:15:41;;;;;;;18.30;11.93;;;;;;;;;;5012221;28;20423;-68
2021/07/20 04:18:34;;;;;;;16.02;10.55;;;;;;;;;;4997871;28;20496;-68
2021/07/20 04:21:20;;;;;;;18.88;11.13;;;;;;;;;;5029135;28;20053;-68
2021/07/20 04:24:06;;;;;;;17.95;11.48;;;;;;;;;;4997055;28;20445;-68
2021/07/20 04:26:54;;;;;;;16.27;10.98;;;;;;;;;;5020181;28;20084;-69
2021/07/20 04:29:39;;;;;;;44.25;12.65;;;;;;;;;;5000818;28;20140;-68
2021/07/20 04:32:27;;;;;;;16.38;9.88;;;;;;;;;;5015281;28;20615;-69
2021/07/20 04:35:14;;;;;;;19.05;11.40;;;;;;;;;;5004771;28;20045;-68
2021/07/20 04:38:06;;;;;;;18.58;11.15;;;;;;;;;;5014614;28;20080;-68
2021/07/20 04:40:54;;;;;;;17.50;11.88;;;;;;;;;;5029233;28;20610;-68
2021/07/20 04:43:39;;;;;;;15.27;10.95;;;;;;;;;;5030451;28;20042;-68
2021/07/20 04:46:26;;;;;;;18.17;11.52;;;;;;;;;;5029818;28;20049;-68
2021/07/20 04:49:19;;;;;;;22.80;12.13;;;;;;;;;;5017309;28;20508;-68
2021/07/20 04:52:05;;;;;;;16.67;11.02;;;;;;;;;;5021395;28;20064;-67
2021/07/20 04:54:51;;;;;;;16.27;11.20;;;;;;;;;;5015015;28;20042;-68
2021/07/20 04:57:37;;;;;;;18.70;10.20;;;;;;;;;;5026280;28;20049;-67
2021/07/20 05:00:25;;;;;;;18.08;11.65;;;;;;;;;;5031686;28;20092;-68
2021/07/20 05:03:10;;;;;;;19.95;11.65;;;;;;;;;;5014238;28;20056;-69
2021/07/20 05:05:57;;;;;;;18.42;11.65;;;;;;;;;;5023992;28;20514;-68
2021/07/20 05:08:46;;;;;;;19.55;11.63;;;;;;;;;;5036378;28;20049;-68
2021/07/20 05:11:32;;;;;;;16.98;11.48;;;;;;;;;;5003214;28;20041;-67
2021/07/20 05:14:19;;;;;;;18.17;11.98;;;;;;;;;;5029114;28;20583;-67
2021/07/20 05:17:06;;;;;;;17.75;12.32;;;;;;;;;;5015421;28;20116;-68
2021/07/20 05:19:55;;;;;;;18.17;11.90;;;;;;;;;;4999998;28;20053;-68
2021/07/20 05:22:47;;;;;;;15.18;11.13;;;;;;;;;;5014171;28;20049;-68
2021/07/20 05:25:34;;;;;;;15.73;10.95;;;;;;;;;;5014281;28;20054;-68
2021/07/20 05:28:19;;;;;;;18.55;11.38;;;;;;;;;;5015631;28;20431;-68
2021/07/20 05:31:05;;;;;;;15.18;10.45;;;;;;;;;;5002171;28;20133;-68
2021/07/20 05:33:50;;;;;;;15.45;10.70;;;;;;;;;;5032808;28;20053;-68
2021/07/20 05:36:35;;;;;;;22.73;11.10;;;;;;;;;;5021422;28;20143;-68
2021/07/20 05:39:22;;;;;;;16.30;11.00;;;;;;;;;;5012719;28;20546;-68
2021/07/20 05:42:23;;;;;;;18.38;10.18;;;;;;;;;;5023074;28;20085;-68
2021/07/20 05:45:10;;;;;;;19.98;11.60;;;;;;;;;;5033108;28;20052;-67
2021/07/20 05:47:56;;;;;;;17.08;11.05;;;;;;;;;;5080162;23;20044;-69
2021/07/20 05:50:48;;;;;;;14.90;10.80;;;;;;;;;;5050653;28;20068;-68
2021/07/20 05:53:49;;;;;;;17.27;10.52;;;;;;;;;;5052157;28;20043;-68
2021/07/20 05:56:54;;;;;;;16.30;10.60;;;;;;;;;;5052263;28;20048;-68
2021/07/20 05:59:58;;;;;;;15.82;10.05;;;;;;;;;;5049733;28;20041;-68
2021/07/20 06:02:52;;;;;;;14.73;10.38;;;;;;;;;;5049776;28;20084;-69
2021/07/20 06:05:42;;;;;;;13.18;10.10;;;;;;;;;;5051846;28;20064;-69
2021/07/20 06:08:28;;;;;;;16.05;10.65;;;;;;;;;;5052802;28;20037;-69
2021/07/20 06:11:14;;;;;;;15.75;9.63;;;;;;;;;;5065735;28;20126;-69
2021/07/20 06:14:00;;;;;;;17.02;11.02;;;;;;;;;;5038006;28;20052;-70
2021/07/20 06:16:45;;;;;;;25.23;10.02;;;;;;;;;;5052984;28;20045;-69
2021/07/20 06:19:32;;;;;;;12.90;9.40;;;;;;;;;;5051423;28;20048;-69
2021/07/20 06:22:16;;;;;;;16.63;10.70;;;;;;;;;;5051844;28;20387;-69
2021/07/20 06:25:10;;;;;;;16.42;11.45;;;;;;;;;;5048098;28;20040;-69
2021/07/20 06:27:55;;;;;;;15.75;10.75;;;;;;;;;;5051398;28;20508;-69
2021/07/20 06:30:41;;;;;;;16.90;10.55;;;;;;;;;;5051326;28;20040;-69
2021/07/20 06:33:26;;;;;;;15.30;10.63;;;;;;;;;;5052653;28;20044;-69
2021/07/20 06:36:14;;;;;;;15.15;10.65;;;;;;;;;;5051293;28;20052;-69
2021/07/20 06:38:59;;;;;;;14.80;10.38;;;;;;;;;;5052167;28;20108;-69
2021/07/20 06:41:44;;;;;;;13.35;9.43;;;;;;;;;;5065115;28;20644;-69
2021/07/20 06:44:30;;;;;;;14.68;9.68;;;;;;;;;;5051254;28;20410;-69
2021/07/20 06:47:16;;;;;;;12.60;10.13;;;;;;;;;;5064193;28;20135;-69
2021/07/20 06:50:04;;;;;;;14.10;9.95;;;;;;;;;;5051627;28;20044;-69
2021/07/20 06:52:50;;;;;;;12.73;9.57;;;;;;;;;;5058722;28;20561;-70
2021/07/20 06:55:35;;;;;;;14.35;9.50;;;;;;;;;;5047207;28;20086;-69
2021/07/20 06:58:21;;;;;;;14.80;9.43;;;;;;;;;;5050005;28;20041;-69
2021/07/20 07:01:06;;;;;;;13.10;9.73;;;;;;;;;;5050829;28;20091;-69
2021/07/20 07:04:10;;;;;;;14.25;10.05;;;;;;;;;;5050609;28;20052;-69
2021/07/20 07:06:56;;;;;;;14.20;10.57;;;;;;;;;;5051306;28;20040;-68
2021/07/20 07:09:41;;;;;;;16.98;10.65;;;;;;;;;;5031238;28;20052;-69
2021/07/20 07:12:27;;;;;;;13.98;10.30;;;;;;;;;;5050302;28;20048;-69
2021/07/20 07:15:13;;;;;;;15.88;10.05;;;;;;;;;;5037148;28;20044;-69
2021/07/20 07:17:58;;;;;;;11.85;9.13;;;;;;;;;;5051016;28;20044;-69
2021/07/20 07:20:43;;;;;;;14.55;10.15;;;;;;;;;;5039017;28;20122;-69
2021/07/20 07:23:29;;;;;;;13.15;9.05;;;;;;;;;;5063795;28;20045;-69
2021/07/20 07:26:14;;;;;;;13.90;9.68;;;;;;;;;;5049701;28;20043;-69
2021/07/20 07:28:59;;;;;;;14.13;9.05;;;;;;;;;;5050057;28;20082;-69
2021/07/20 07:31:45;;;;;;;13.20;9.43;;;;;;;;;;5063547;28;20406;-69
2021/07/20 07:34:30;;;;;;;12.45;9.57;;;;;;;;;;5051522;28;20052;-69
2021/07/20 07:37:17;;;;;;;14.38;9.60;;;;;;;;;;5050746;28;20041;-70
2021/07/20 07:40:02;;;;;;;12.52;8.43;;;;;;;;;;5045012;28;20042;-69
2021/07/20 07:42:47;;;;;;;13.07;9.20;;;;;;;;;;5031824;28;20042;-69
2021/07/20 07:45:33;;;;;;;14.25;8.50;;;;;;;;;;5058990;28;20163;-69
2021/07/20 07:48:18;;;;;;;11.02;8.13;;;;;;;;;;5050235;28;20067;-68
2021/07/20 07:51:05;;;;;;;11.82;7.88;;;;;;;;;;5046891;28;20040;-68
2021/07/20 07:53:50;;;;;;;11.80;8.93;;;;;;;;;;5050919;28;20190;-70
2021/07/20 07:56:37;;;;;;;11.80;8.93;;;;;;;;;;5064283;28;20041;-68
2021/07/20 07:59:23;;;;;;;16.48;8.63;;;;;;;;;;5064513;28;20037;-68
2021/07/20 08:02:10;;;;;;;14.52;7.35;;;;;;;;;;5050417;28;20167;-68
2021/07/20 08:04:55;;;;;;;11.75;8.77;;;;;;;;;;5049395;28;20037;-69
2021/07/20 08:07:41;;;;;;;10.65;8.60;;;;;;;;;;5057226;28;20095;-69
2021/07/20 08:10:26;;;;;;;9.80;7.43;;;;;;;;;;5060824;28;20071;-70
2021/07/20 08:13:12;;;;;;;12.13;7.95;;;;;;;;;;5055354;28;20081;-70
2021/07/20 08:15:58;;;;;;;9.10;7.15;;;;;;;;;;5055218;28;20059;-70
2021/07/20 08:18:43;;;;;;;7.70;6.15;;;;;;;;;;5039211;28;20053;-69
2021/07/20 08:21:29;;;;;;;8.90;7.13;;;;;;;;;;5054319;28;20133;-70
2021/07/20 08:24:14;;;;;;;10.07;7.93;;;;;;;;;;5048737;28;20041;-70
2021/07/20 08:27:01;;;;;;;8.75;6.50;;;;;;;;;;5054790;28;20087;-69
2021/07/20 08:29:47;;;;;;;8.93;7.07;;;;;;;;;;5067548;28;20045;-64
2021/07/20 08:32:33;;;;;;;12.88;6.80;;;;;;;;;;5050829;28;20072;-64
2021/07/20 08:35:19;;;;;;;10.35;6.43;;;;;;;;;;5052338;28;20044;-65
2021/07/20 08:38:08;;;;;;;9.02;6.63;;;;;;;;;;5053597;28;20563;-64
2021/07/20 08:41:00;;;;;;;7.22;6.35;;;;;;;;;;5054413;28;20128;-64
2021/07/20 08:43:58;;;;;;;10.10;6.70;;;;;;;;;;5042863;28;20050;-65
2021/07/20 08:46:49;;;;;;;9.05;7.60;;;;;;;;;;5052373;28;20041;-65
2021/07/20 08:50:00;;;;;;;13.93;7.75;;;;;;;;;;5045316;28;20109;-65
2021/07/20 08:52:47;;;;;;;11.07;6.97;;;;;;;;;;5049620;28;20049;-64
2021/07/20 08:55:34;;;;;;;9.45;6.80;;;;;;;;;;5067703;28;20053;-65
2021/07/20 08:58:22;;;;;;;9.10;6.10;;;;;;;;;;5053930;28;20049;-65
2021/07/20 09:01:07;;;;;;;7.00;5.75;;;;;;;;;;5052840;28;21130;-64
2021/07/20 09:04:06;;;;;;;8.27;6.85;;;;;;;;;;5050847;28;20048;-65
2021/07/20 09:06:52;;;;;;;9.50;6.45;;;;;;;;;;5034197;28;20053;-63
2021/07/20 09:09:39;;;;;;;8.05;6.22;;;;;;;;;;5052930;28;20052;-64
2021/07/20 09:12:25;;;;;;;9.23;6.82;;;;;;;;;;5072149;28;20129;-65
2021/07/20 09:15:10;;;;;;;8.38;6.30;;;;;;;;;;5066403;28;20513;-65
2021/07/20 09:17:56;;;;;;;8.52;6.15;;;;;;;;;;5054120;28;20060;-65
2021/07/20 09:20:43;;;;;;;7.60;6.15;;;;;;;;;;5053381;28;20043;-64
2021/07/20 09:23:30;;;;;;;8.82;6.90;;;;;;;;;;5050328;28;20170;-65
2021/07/20 09:26:22;;;;;;;8.65;6.90;;;;;;;;;;5053984;28;20410;-64
2021/07/20 09:29:13;;;;;;;9.02;6.32;;;;;;;;;;5032935;28;20630;-65
2021/07/20 09:32:03;;;;;;;6.85;5.97;;;;;;;;;;5032673;28;20123;-65
2021/07/20 09:34:48;;;;;;;7.10;5.88;;;;;;;;;;5051846;28;20509;-65
2021/07/20 09:37:55;;;;;;;7.95;6.22;;;;;;;;;;5053598;28;20041;-65
2021/07/20 09:40:44;;;;;;;7.72;5.68;;;;;;;;;;5053113;28;20049;-65
2021/07/20 09:43:45;;;;;;;12.50;6.88;;;;;;;;;;5046404;28;20484;-65
2021/07/20 09:46:45;;;;;;;10.32;7.07;;;;;;;;;;5060292;28;20047;-64
2021/07/20 09:49:40;;;;;;;9.60;6.10;;;;;;;;;;5057995;28;20134;-63
2021/07/20 09:52:41;;;;;;;5.80;4.95;;;;;;;;;;5066461;28;20056;-64
2021/07/20 09:55:42;;;;;;;7.60;5.93;;;;;;;;;;5065232;28;20052;-64
2021/07/20 09:58:27;;;;;;;8.93;6.43;;;;;;;;;;5052596;28;20514;-63
2021/07/20 10:01:14;;;;;;;9.20;5.55;;;;;;;;;;5055349;28;20505;-63
2021/07/20 10:04:10;;;;;;;6.60;6.00;;;;;;;;;;5049898;28;20494;-64
2021/07/20 10:07:10;;;;;;;7.88;5.80;;;;;;;;;;5045200;28;20443;-64
2021/07/20 10:09:55;;;;;;;8.45;5.13;;;;;;;;;;5064004;28;20398;-63
2021/07/20 10:12:55;;;;;;;8.13;6.03;;;;;;;;;;5052676;28;20074;-64
2021/07/20 10:15:40;;;;;;;8.43;6.47;;;;;;;;;;5050183;28;20520;-64
2021/07/20 10:18:38;;;;;;;8.85;5.93;;;;;;;;;;5052281;28;20041;-64
2021/07/20 10:21:24;;;;;;;8.00;5.30;;;;;;;;;;5051590;28;20068;-64
2021/07/20 10:24:14;;;;;;;5.97;4.88;;;;;;;;;;5053171;28;20055;-64
2021/07/20 10:27:14;;;;;;;6.15;5.55;;;;;;;;;;5049712;28;20040;-64
2021/07/20 10:30:02;;;;;;;6.78;5.32;;;;;;;;;;5047656;28;20052;-64
2021/07/20 10:32:47;;;;;;;7.43;5.97;;;;;;;;;;5050749;28;20107;-64
2021/07/20 10:35:36;;;;;;;6.50;5.28;;;;;;;;;;5050838;28;20136;-63
2021/07/20 10:38:22;;;;;;;5.85;5.25;;;;;;;;;;5051337;28;20124;-64
2021/07/20 10:41:07;;;;;;;5.90;5.30;;;;;;;;;;5052442;28;20041;-64
2021/07/20 10:43:56;;;;;;;6.57;5.30;;;;;;;;;;5065421;28;20052;-64
2021/07/20 10:46:41;;;;;;;6.40;5.22;;;;;;;;;;5052340;28;20049;-64
2021/07/20 10:49:34;;;;;;;6.22;5.32;;;;;;;;;;5052074;28;20052;-63
2021/07/20 10:52:22;;;;;;;5.88;4.90;;;;;;;;;;5046800;28;20052;-64
2021/07/20 10:55:11;;;;;;;6.07;5.32;;;;;;;;;;5032410;28;20523;-63
2021/07/20 10:58:01;;;;;;;8.18;5.85;;;;;;;;;;5045406;28;20458;-63
2021/07/20 11:00:52;;;;;;;6.07;5.00;;;;;;;;;;5032354;28;20499;-63
2021/07/20 11:03:53;;;;;;;8.82;6.30;;;;;;;;;;5045114;28;20159;-63
2021/07/20 11:06:39;;;;;;;;;;;;;;;;;;5032791;28;20402;-64
2021/07/20 11:09:24;;;;;;;7.93;6.00;;;;;;;;;;5032309;28;20406;-64
2021/07/20 11:12:09;;;;;;;8.98;6.20;;;;;;;;;;5031170;28;20531;-63
2021/07/20 11:14:56;;;;;;;7.35;6.53;;;;;;;;;;5032159;28;20048;-64
2021/07/20 11:17:42;;;;;;;6.10;5.50;;;;;;;;;;5032306;28;20103;-63
2021/07/20 11:20:27;;;;;;;8.10;6.07;;;;;;;;;;5032189;28;20107;-63
2021/07/20 11:23:12;;;;;;;6.97;6.20;;;;;;;;;;5045734;28;20187;-64
2021/07/20 11:25:57;;;;;;;7.03;5.80;;;;;;;;;;5065010;28;20171;-63
2021/07/20 11:28:44;;;;;;;8.63;5.85;;;;;;;;;;5064913;28;20045;-64
2021/07/20 11:31:40;;;;;;;6.07;5.45;;;;;;;;;;5063885;28;20041;-63
2021/07/20 11:34:28;;;;;;;6.35;5.13;;;;;;;;;;5051953;28;20052;-63
2021/07/20 11:37:14;;;;;;;6.80;5.40;;;;;;;;;;5051800;28;20494;-63
2021/07/20 11:40:05;;;;;;;10.15;5.57;;;;;;;;;;5050611;28;20167;-63
2021/07/20 11:42:53;;;;;;;8.77;4.50;;;;;;;;;;5051472;28;20046;-64
2021/07/20 11:45:41;;;;;;;15.77;6.78;;;;;;;;;;5053522;28;20056;-63
2021/07/20 11:48:30;;;;;;;6.57;5.07;;;;;;;;;;5107120;22;20108;-63
2021/07/20 11:51:19;;;;;;;6.95;4.85;;;;;;;;;;5074806;28;20055;-63
2021/07/20 11:54:12;;;;;;;8.18;5.45;;;;;;;;;;5075222;28;20090;-64
2021/07/20 11:57:02;;;;;;;7.25;5.28;;;;;;;;;;5075624;28;20054;-63
2021/07/20 12:00:06;;;;;;;5.43;4.33;;;;;;;;;;5054704;28;20073;-63
2021/07/20 12:03:09;;;;;;;4.88;4.35;;;;;;;;;;5055803;28;20520;-63
2021/07/20 12:05:57;;;;;;;4.47;4.07;;;;;;;;;;5055569;28;20045;-63
2021/07/20 12:09:18;;;;;;;5.43;4.65;;;;;;;;;;5055010;28;20052;-63
2021/07/20 12:12:03;;;;;;;8.00;5.45;;;;;;;;;;5013301;28;20137;-63
2021/07/20 12:14:49;;;;;;;6.10;4.38;;;;;;;;;;5055697;28;20480;-63
2021/07/20 12:17:34;;;;;;;6.82;5.15;;;;;;;;;;5054376;28;20053;-64
2021/07/20 12:20:20;;;;;;;5.65;4.95;;;;;;;;;;5055047;28;20049;-63
2021/07/20 12:23:05;;;;;;;5.18;4.68;;;;;;;;;;5055673;28;20060;-63
2021/07/20 12:25:51;;;;;;;6.38;5.18;;;;;;;;;;5055264;28;20040;-64
2021/07/20 12:28:40;;;;;;;7.10;5.22;;;;;;;;;;5054108;28;20450;-63
2021/07/20 12:31:31;;;;;;;7.35;5.50;;;;;;;;;;5055063;28;20048;-64
2021/07/20 12:34:17;;;;;;;5.43;4.88;;;;;;;;;;5055127;28;20111;-63
2021/07/20 12:37:03;;;;;;;7.20;4.55;;;;;;;;;;5054898;28;20059;-64
2021/07/20 12:39:48;;;;;;;6.68;4.50;;;;;;;;;;5054884;28;20052;-64
2021/07/20 12:42:34;;;;;;;5.50;4.40;;;;;;;;;;5054967;28;20066;-63
2021/07/20 12:45:21;;;;;;;10.52;5.15;;;;;;;;;;5055027;28;20056;-63
2021/07/20 12:48:06;;;;;;;5.43;4.03;;;;;;;;;;5053712;28;20056;-63
2021/07/20 12:50:51;;;;;;;6.93;5.07;;;;;;;;;;5054557;28;20091;-63
2021/07/20 12:53:40;;;;;;;5.65;5.07;;;;;;;;;;5054662;28;20150;-63
2021/07/20 12:56:26;;;;;;;8.55;5.00;;;;;;;;;;5054156;28;20060;-63
2021/07/20 12:59:11;;;;;;;7.07;5.32;;;;;;;;;;5056218;28;20060;-63
2021/07/20 13:01:57;;;;;;;5.97;4.63;;;;;;;;;;5055669;28;20085;-62
2021/07/20 13:04:48;;;;;;;7.20;5.13;;;;;;;;;;5053586;28;20056;-63
2021/07/20 13:07:34;;;;;;;4.65;4.15;;;;;;;;;;5054414;28;20146;-64
2021/07/20 13:10:20;;;;;;;6.25;4.65;;;;;;;;;;5054186;28;20063;-64
2021/07/20 13:13:06;;;;;;;7.78;4.55;;;;;;;;;;5053476;28;20132;-64
2021/07/20 13:15:51;;;;;;;6.40;4.78;;;;;;;;;;5054983;28;20076;-63
2021/07/20 13:18:37;;;;;;;6.60;4.90;;;;;;;;;;5054180;28;20445;-63
2021/07/20 13:21:22;;;;;;;5.50;4.55;;;;;;;;;;5054003;28;20047;-63
2021/07/20 13:24:08;;;;;;;5.03;3.92;;;;;;;;;;5054264;28;20041;-63
2021/07/20 13:26:56;;;;;;;7.22;5.03;;;;;;;;;;5054157;28;20171;-63
2021/07/20 13:29:41;;;;;;;6.05;4.50;;;;;;;;;;5054208;28;20052;-64
2021/07/20 13:32:27;;;;;;;5.50;4.38;;;;;;;;;;5053077;28;20510;-64
2021/07/20 13:35:13;;;;;;;6.03;4.45;;;;;;;;;;5055098;28;20077;-63
2021/07/20 13:37:58;;;;;;;4.88;3.97;;;;;;;;;;5055178;28;20166;-63
2021/07/20 13:40:43;;;;;;;6.68;5.07;;;;;;;;;;5053050;28;20049;-64
2021/07/20 13:43:29;;;;;;;5.32;4.22;;;;;;;;;;5052744;28;20440;-63
2021/07/20 13:46:14;;;;;;;5.88;4.38;;;;;;;;;;5053875;28;20052;-63
2021/07/20 13:49:00;;;;;;;5.20;4.32;;;;;;;;;;5066540;28;20533;-64
2021/07/20 13:51:45;;;;;;;6.25;4.85;;;;;;;;;;5052525;28;20152;-63
2021/07/20 13:54:31;;;;;;;5.93;4.40;;;;;;;;;;5052733;28;20060;-63
2021/07/20 13:57:17;;;;;;;5.63;4.68;;;;;;;;;;5053650;28;20106;-63
2021/07/20 14:00:03;;;;;;;6.20;4.45;;;;;;;;;;5052284;28;20530;-64
2021/07/20 14:02:58;;;;;;;6.05;4.88;;;;;;;;;;5053369;28;20498;-64
2021/07/20 14:05:43;;;;;;;6.50;4.47;;;;;;;;;;5053423;28;20131;-63
2021/07/20 14:08:28;;;;;;;7.00;4.13;;;;;;;;;;5051265;28;20041;-63
2021/07/20 14:11:14;;;;;;;5.63;3.83;;;;;;;;;;5052159;28;20130;-64
2021/07/20 14:13:59;;;;;;;6.40;4.25;;;;;;;;;;5053938;28;20059;-63
2021/07/20 14:16:44;;;;;;;6.00;4.40;;;;;;;;;;5039695;28;20430;-63
2021/07/20 14:19:30;;;;;;;5.47;4.03;;;;;;;;;;5031568;28;20128;-63
2021/07/20 14:22:19;;;;;;;6.32;4.13;;;;;;;;;;5049537;28;20498;-63
2021/07/20 14:25:04;;;;;;;4.95;4.43;;;;;;;;;;5052230;28;20048;-64
2021/07/20 14:27:49;;;;;;;6.05;4.55;;;;;;;;;;5050265;28;20044;-63
2021/07/20 14:30:35;;;;;;;6.15;4.38;;;;;;;;;;5035282;28;20053;-63
2021/07/20 14:33:20;;;;;;;5.82;4.88;;;;;;;;;;5053117;28;20471;-63
2021/07/20 14:36:06;;;;;;;5.45;4.40;;;;;;;;;;5037709;28;20186;-63
2021/07/20 14:38:53;;;;;;;6.53;5.18;;;;;;;;;;5042282;28;20049;-63
2021/07/20 14:41:39;;;;;;;7.05;3.90;;;;;;;;;;5044980;28;20051;-63
2021/07/20 14:44:24;;;;;;;8.45;4.28;;;;;;;;;;5045221;28;20047;-63
2021/07/20 14:47:10;;;;;;;6.93;3.92;;;;;;;;;;5040570;28;20052;-64
2021/07/20 14:49:55;;;;;;;4.35;3.88;;;;;;;;;;5048567;28;20056;-64
2021/07/20 14:52:52;;;;;;;6.72;4.05;;;;;;;;;;5046384;28;20045;-63
2021/07/20 14:55:38;;;;;;;6.45;4.22;;;;;;;;;;5043424;28;20055;-63
2021/07/20 14:58:27;;;;;;;5.32;4.82;;;;;;;;;;5046455;28;20071;-63
2021/07/20 15:01:14;;;;;;;5.68;4.55;;;;;;;;;;5042949;28;20106;-63
2021/07/20 15:04:00;;;;;;;4.93;4.38;;;;;;;;;;5046246;28;20519;-63
2021/07/20 15:06:47;;;;;;;5.30;4.53;;;;;;;;;;5044397;28;20041;-63
2021/07/20 15:09:33;;;;;;;6.60;4.63;;;;;;;;;;5046740;28;20045;-63
2021/07/20 15:12:23;;;;;;;6.90;4.20;;;;;;;;;;5040121;28;20132;-64
2021/07/20 15:15:08;;;;;;;7.07;5.03;;;;;;;;;;5034700;28;20090;-63
2021/07/20 15:17:54;;;;;;;9.00;5.22;;;;;;;;;;5050125;28;20132;-64
2021/07/20 15:20:39;;;;;;;5.53;4.72;;;;;;;;;;5049934;28;20055;-63
2021/07/20 15:23:24;;;;;;;6.10;5.05;;;;;;;;;;5044546;28;20592;-63
2021/07/20 15:26:09;;;;;;;5.55;4.97;;;;;;;;;;5054051;28;20049;-63
2021/07/20 15:28:55;;;;;;;7.03;5.03;;;;;;;;;;5045404;28;20050;-63
2021/07/20 15:31:40;;;;;;;5.78;4.68;;;;;;;;;;5047206;28;20067;-63
2021/07/20 15:34:27;;;;;;;7.38;4.95;;;;;;;;;;5044917;28;20052;-63
2021/07/20 15:37:12;;;;;;;5.60;4.47;;;;;;;;;;5039853;28;20111;-62
2021/07/20 15:40:01;;;;;;;5.82;4.90;;;;;;;;;;5045420;28;20045;-63
2021/07/20 15:42:50;;;;;;;6.15;4.90;;;;;;;;;;5046111;28;20513;-62
2021/07/20 15:45:36;;;;;;;6.15;4.28;;;;;;;;;;5052887;28;20044;-63
2021/07/20 15:48:21;;;;;;;5.32;4.60;;;;;;;;;;5051026;28;20064;-63
2021/07/20 15:51:08;;;;;;;4.60;4.10;;;;;;;;;;5051275;28;20057;-63
2021/07/20 15:53:53;;;;;;;6.57;4.78;;;;;;;;;;5051873;28;20128;-64
2021/07/20 15:56:38;;;;;;;5.75;4.65;;;;;;;;;;5063552;28;20049;-63
2021/07/20 15:59:24;;;;;;;4.72;4.22;;;;;;;;;;5049488;28;20045;-63
2021/07/20 16:02:09;;;;;;;7.95;4.57;;;;;;;;;;5033085;28;20050;-64
2021/07/20 16:04:57;;;;;;;5.53;4.15;;;;;;;;;;5068691;28;20048;-64
2021/07/20 16:07:45;;;;;;;7.07;5.47;;;;;;;;;;5054350;28;20413;-63
2021/07/20 16:10:31;;;;;;;6.65;4.68;;;;;;;;;;5051369;28;20126;-64
2021/07/20 16:13:16;;;;;;;11.40;5.32;;;;;;;;;;5047267;28;20041;-63
2021/07/20 16:16:02;;;;;;;8.00;5.10;;;;;;;;;;5031468;28;20060;-63
2021/07/20 16:18:48;;;;;;;6.15;4.65;;;;;;;;;;5031590;28;20049;-63
2021/07/20 16:21:33;;;;;;;6.05;4.70;;;;;;;;;;5038725;28;20069;-64
2021/07/20 16:24:20;;;;;;;8.07;5.18;;;;;;;;;;5045761;28;20052;-63
2021/07/20 16:27:05;;;;;;;4.88;4.18;;;;;;;;;;5051568;28;20052;-63
2021/07/20 16:29:51;;;;;;;6.93;4.57;;;;;;;;;;5070224;28;20051;-63
2021/07/20 16:32:37;;;;;;;8.77;4.80;;;;;;;;;;5058093;28;20414;-63
2021/07/20 16:35:23;;;;;;;7.10;4.70;;;;;;;;;;5067050;28;20137;-63
2021/07/20 16:38:13;;;;;;;4.50;4.05;;;;;;;;;;5052697;28;20438;-64
2021/07/20 16:41:05;;;;;;;4.80;3.85;;;;;;;;;;5050245;28;20053;-63